sensor_id;sensor_type;location;lat;lon;timestamp;P1;durP1;ratioP1;P2;durP2;ratioP2
15679;SDS011;15488;48.114;11.532;2022-12-26T00:02:13;2.20;;;1.20;;
15679;SDS011;15488;48.114;11.532;2022-12-26T00:04:41;1.40;;;1.20;;
15679;SDS011;15488;48.114;11.532;2022-12-26T00:07:08;1.70;;;1.27;;
15679;SDS011;15488;48.114;11.532;2022-12-26T00:09:36;1.57;;;1.20;;
15679;SDS011;15488;48.114;11.532;2022-12-26T00:12:05;1.93;;;1.43;;
15679;SDS011;15488;48.114;11.532;2022-12-26T00:14:32;2.03;;;1.40;;
15679;SDS011;15488;48.114;11.532;2022-12-26T00:17:00;1.57;;;1.10;;
15679;SDS011;15488;48.114;11.532;2022-12-26T00:19:27;1.03;;;0.90;;
15679;SDS011;15488;48.114;11.532;2022-12-26T00:21:54;1.90;;;1.07;;
15679;SDS011;15488;48.114;11.532;2022-12-26T00:24:22;1.50;;;1.10;;
15679;SDS011;15488;48.114;11.532;2022-12-26T00:26:50;1.57;;;1.10;;
15679;SDS011;15488;48.114;11.532;2022-12-26T00:29:18;1.80;;;1.30;;
15679;SDS011;15488;48.114;11.532;2022-12-26T00:31:46;1.33;;;1.20;;
15679;SDS011;15488;48.114;11.532;2022-12-26T00:34:14;1.10;;;0.93;;
15679;SDS011;15488;48.114;11.532;2022-12-26T00:36:42;1.37;;;1.10;;
15679;SDS011;15488;48.114;11.532;2022-12-26T00:39:09;2.17;;;1.53;;
15679;SDS011;15488;48.114;11.532;2022-12-26T00:41:37;2.07;;;1.63;;
15679;SDS011;15488;48.114;11.532;2022-12-26T00:44:04;1.40;;;1.20;;
15679;SDS011;15488;48.114;11.532;2022-12-26T00:46:33;1.73;;;1.13;;
15679;SDS011;15488;48.114;11.532;2022-12-26T00:49:00;1.53;;;1.20;;
15679;SDS011;15488;48.114;11.532;2022-12-26T00:51:28;1.17;;;1.07;;
15679;SDS011;15488;48.114;11.532;2022-12-26T00:53:55;1.63;;;1.10;;
15679;SDS011;15488;48.114;11.532;2022-12-26T00:56:23;1.20;;;1.10;;
15679;SDS011;15488;48.114;11.532;2022-12-26T00:58:51;1.37;;;1.13;;
15679;SDS011;15488;48.114;11.532;2022-12-26T01:01:18;2.60;;;1.07;;
15679;SDS011;15488;48.114;11.532;2022-12-26T01:03:48;1.77;;;1.20;;
15679;SDS011;15488;48.114;11.532;2022-12-26T01:06:17;1.30;;;1.20;;
15679;SDS011;15488;48.114;11.532;2022-12-26T01:08:44;1.40;;;1.13;;
15679;SDS011;15488;48.114;11.532;2022-12-26T01:11:12;1.40;;;1.10;;
15679;SDS011;15488;48.114;11.532;2022-12-26T01:14:01;2.00;;;1.17;;
15679;SDS011;15488;48.114;11.532;2022-12-26T01:16:28;2.17;;;1.33;;
15679;SDS011;15488;48.114;11.532;2022-12-26T01:18:57;1.43;;;1.20;;
15679;SDS011;15488;48.114;11.532;2022-12-26T01:21:24;2.43;;;1.20;;
15679;SDS011;15488;48.114;11.532;2022-12-26T01:23:52;1.77;;;1.23;;
15679;SDS011;15488;48.114;11.532;2022-12-26T01:26:20;1.47;;;1.20;;
15679;SDS011;15488;48.114;11.532;2022-12-26T01:28:47;1.20;;;1.10;;
15679;SDS011;15488;48.114;11.532;2022-12-26T01:31:15;1.50;;;1.10;;
15679;SDS011;15488;48.114;11.532;2022-12-26T01:33:43;1.20;;;1.10;;
15679;SDS011;15488;48.114;11.532;2022-12-26T01:36:12;1.90;;;1.20;;
15679;SDS011;15488;48.114;11.532;2022-12-26T01:38:40;1.20;;;0.90;;
15679;SDS011;15488;48.114;11.532;2022-12-26T01:41:08;1.10;;;1.00;;
15679;SDS011;15488;48.114;11.532;2022-12-26T01:43:51;1.67;;;0.97;;
15679;SDS011;15488;48.114;11.532;2022-12-26T01:46:21;1.37;;;1.00;;
15679;SDS011;15488;48.114;11.532;2022-12-26T01:48:53;1.20;;;0.97;;
15679;SDS011;15488;48.114;11.532;2022-12-26T01:51:27;0.83;;;0.80;;
15679;SDS011;15488;48.114;11.532;2022-12-26T01:53:58;3.00;;;1.03;;
15679;SDS011;15488;48.114;11.532;2022-12-26T01:56:29;1.00;;;0.90;;
15679;SDS011;15488;48.114;11.532;2022-12-26T01:59:00;1.00;;;0.90;;
15679;SDS011;15488;48.114;11.532;2022-12-26T02:01:34;1.17;;;0.90;;
15679;SDS011;15488;48.114;11.532;2022-12-26T02:04:06;1.00;;;0.90;;
15679;SDS011;15488;48.114;11.532;2022-12-26T02:06:54;1.10;;;1.00;;
15679;SDS011;15488;48.114;11.532;2022-12-26T02:09:22;0.83;;;0.80;;
15679;SDS011;15488;48.114;11.532;2022-12-26T02:11:51;1.57;;;0.97;;
15679;SDS011;15488;48.114;11.532;2022-12-26T02:14:23;1.60;;;0.93;;
15679;SDS011;15488;48.114;11.532;2022-12-26T02:16:51;2.20;;;0.87;;
15679;SDS011;15488;48.114;11.532;2022-12-26T02:19:22;1.10;;;1.00;;
15679;SDS011;15488;48.114;11.532;2022-12-26T02:22:13;1.60;;;1.10;;
15679;SDS011;15488;48.114;11.532;2022-12-26T02:25:04;1.40;;;0.93;;
15679;SDS011;15488;48.114;11.532;2022-12-26T02:27:57;1.20;;;0.97;;
15679;SDS011;15488;48.114;11.532;2022-12-26T02:30:51;1.60;;;0.90;;
15679;SDS011;15488;48.114;11.532;2022-12-26T02:33:36;0.83;;;0.70;;
15679;SDS011;15488;48.114;11.532;2022-12-26T02:36:18;0.83;;;0.83;;
15679;SDS011;15488;48.114;11.532;2022-12-26T02:38:59;1.10;;;0.97;;
15679;SDS011;15488;48.114;11.532;2022-12-26T02:41:38;0.90;;;0.80;;
15679;SDS011;15488;48.114;11.532;2022-12-26T02:44:12;1.00;;;0.90;;
15679;SDS011;15488;48.114;11.532;2022-12-26T02:47:06;0.90;;;0.80;;
15679;SDS011;15488;48.114;11.532;2022-12-26T02:49:53;1.10;;;0.80;;
15679;SDS011;15488;48.114;11.532;2022-12-26T02:52:46;1.10;;;0.90;;
15679;SDS011;15488;48.114;11.532;2022-12-26T02:55:45;0.97;;;0.80;;
15679;SDS011;15488;48.114;11.532;2022-12-26T02:58:37;1.67;;;1.00;;
15679;SDS011;15488;48.114;11.532;2022-12-26T03:01:31;1.23;;;1.00;;
15679;SDS011;15488;48.114;11.532;2022-12-26T03:04:20;0.70;;;0.70;;
15679;SDS011;15488;48.114;11.532;2022-12-26T03:07:11;1.00;;;0.70;;
15679;SDS011;15488;48.114;11.532;2022-12-26T03:10:16;0.80;;;0.80;;
15679;SDS011;15488;48.114;11.532;2022-12-26T03:13:04;0.80;;;0.60;;
15679;SDS011;15488;48.114;11.532;2022-12-26T03:15:36;0.80;;;0.60;;
15679;SDS011;15488;48.114;11.532;2022-12-26T03:18:26;0.90;;;0.80;;
15679;SDS011;15488;48.114;11.532;2022-12-26T03:20:57;0.87;;;0.80;;
15679;SDS011;15488;48.114;11.532;2022-12-26T03:23:26;0.57;;;0.53;;
15679;SDS011;15488;48.114;11.532;2022-12-26T03:25:56;1.03;;;0.60;;
15679;SDS011;15488;48.114;11.532;2022-12-26T03:28:43;0.80;;;0.70;;
15679;SDS011;15488;48.114;11.532;2022-12-26T03:31:12;1.37;;;0.57;;
15679;SDS011;15488;48.114;11.532;2022-12-26T03:33:40;0.80;;;0.60;;
15679;SDS011;15488;48.114;11.532;2022-12-26T03:36:30;0.80;;;0.60;;
15679;SDS011;15488;48.114;11.532;2022-12-26T03:39:08;0.50;;;0.40;;
15679;SDS011;15488;48.114;11.532;2022-12-26T03:41:43;1.03;;;0.77;;
15679;SDS011;15488;48.114;11.532;2022-12-26T03:44:36;0.60;;;0.60;;
15679;SDS011;15488;48.114;11.532;2022-12-26T03:47:32;0.60;;;0.50;;
15679;SDS011;15488;48.114;11.532;2022-12-26T03:50:29;0.80;;;0.67;;
15679;SDS011;15488;48.114;11.532;2022-12-26T03:53:19;1.13;;;0.80;;
15679;SDS011;15488;48.114;11.532;2022-12-26T03:56:16;0.50;;;0.50;;
15679;SDS011;15488;48.114;11.532;2022-12-26T03:59:08;0.90;;;0.70;;
15679;SDS011;15488;48.114;11.532;2022-12-26T04:01:56;0.47;;;0.47;;
15679;SDS011;15488;48.114;11.532;2022-12-26T04:04:45;0.60;;;0.60;;
15679;SDS011;15488;48.114;11.532;2022-12-26T04:07:33;0.57;;;0.57;;
15679;SDS011;15488;48.114;11.532;2022-12-26T04:10:24;1.10;;;0.80;;
15679;SDS011;15488;48.114;11.532;2022-12-26T04:13:19;0.60;;;0.60;;
15679;SDS011;15488;48.114;11.532;2022-12-26T04:16:09;1.00;;;0.80;;
15679;SDS011;15488;48.114;11.532;2022-12-26T04:19:13;0.73;;;0.60;;
15679;SDS011;15488;48.114;11.532;2022-12-26T04:21:51;2.00;;;0.60;;
15679;SDS011;15488;48.114;11.532;2022-12-26T04:24:43;0.70;;;0.50;;
15679;SDS011;15488;48.114;11.532;2022-12-26T04:27:34;0.70;;;0.50;;
15679;SDS011;15488;48.114;11.532;2022-12-26T04:30:19;0.80;;;0.67;;
15679;SDS011;15488;48.114;11.532;2022-12-26T04:33:06;0.60;;;0.60;;
15679;SDS011;15488;48.114;11.532;2022-12-26T04:35:57;1.33;;;0.70;;
15679;SDS011;15488;48.114;11.532;2022-12-26T04:38:46;1.13;;;0.40;;
15679;SDS011;15488;48.114;11.532;2022-12-26T04:41:36;1.10;;;0.67;;
15679;SDS011;15488;48.114;11.532;2022-12-26T04:44:24;0.70;;;0.70;;
15679;SDS011;15488;48.114;11.532;2022-12-26T04:46:52;0.93;;;0.60;;
15679;SDS011;15488;48.114;11.532;2022-12-26T04:49:21;0.80;;;0.60;;
15679;SDS011;15488;48.114;11.532;2022-12-26T04:52:06;0.77;;;0.70;;
15679;SDS011;15488;48.114;11.532;2022-12-26T04:54:36;0.70;;;0.60;;
15679;SDS011;15488;48.114;11.532;2022-12-26T04:57:04;1.13;;;0.73;;
15679;SDS011;15488;48.114;11.532;2022-12-26T04:59:33;0.93;;;0.80;;
15679;SDS011;15488;48.114;11.532;2022-12-26T05:02:00;0.80;;;0.60;;
15679;SDS011;15488;48.114;11.532;2022-12-26T05:04:45;0.60;;;0.60;;
15679;SDS011;15488;48.114;11.532;2022-12-26T05:07:30;0.80;;;0.57;;
15679;SDS011;15488;48.114;11.532;2022-12-26T05:10:17;1.43;;;0.60;;
15679;SDS011;15488;48.114;11.532;2022-12-26T05:12:46;1.70;;;0.57;;
15679;SDS011;15488;48.114;11.532;2022-12-26T05:15:16;0.93;;;0.73;;
15679;SDS011;15488;48.114;11.532;2022-12-26T05:17:43;1.50;;;0.60;;
15679;SDS011;15488;48.114;11.532;2022-12-26T05:20:29;2.17;;;0.77;;
15679;SDS011;15488;48.114;11.532;2022-12-26T05:23:14;0.80;;;0.70;;
15679;SDS011;15488;48.114;11.532;2022-12-26T05:26:02;0.47;;;0.47;;
15679;SDS011;15488;48.114;11.532;2022-12-26T05:28:51;0.70;;;0.70;;
15679;SDS011;15488;48.114;11.532;2022-12-26T05:31:22;0.67;;;0.53;;
15679;SDS011;15488;48.114;11.532;2022-12-26T05:33:49;1.17;;;0.70;;
15679;SDS011;15488;48.114;11.532;2022-12-26T05:36:32;0.80;;;0.70;;
15679;SDS011;15488;48.114;11.532;2022-12-26T05:39:02;1.17;;;0.70;;
15679;SDS011;15488;48.114;11.532;2022-12-26T05:41:30;0.70;;;0.70;;
15679;SDS011;15488;48.114;11.532;2022-12-26T05:43:57;0.90;;;0.60;;
15679;SDS011;15488;48.114;11.532;2022-12-26T05:46:26;0.67;;;0.67;;
15679;SDS011;15488;48.114;11.532;2022-12-26T05:48:54;0.90;;;0.70;;
15679;SDS011;15488;48.114;11.532;2022-12-26T05:51:21;1.00;;;0.70;;
15679;SDS011;15488;48.114;11.532;2022-12-26T05:53:49;0.90;;;0.70;;
15679;SDS011;15488;48.114;11.532;2022-12-26T05:56:17;1.23;;;0.70;;
15679;SDS011;15488;48.114;11.532;2022-12-26T05:58:45;1.20;;;0.70;;
15679;SDS011;15488;48.114;11.532;2022-12-26T06:01:19;0.70;;;0.70;;
15679;SDS011;15488;48.114;11.532;2022-12-26T06:03:48;1.00;;;0.73;;
15679;SDS011;15488;48.114;11.532;2022-12-26T06:06:17;0.90;;;0.80;;
15679;SDS011;15488;48.114;11.532;2022-12-26T06:08:46;0.63;;;0.63;;
15679;SDS011;15488;48.114;11.532;2022-12-26T06:11:14;1.07;;;0.77;;
15679;SDS011;15488;48.114;11.532;2022-12-26T06:13:43;0.70;;;0.70;;
15679;SDS011;15488;48.114;11.532;2022-12-26T06:16:11;0.70;;;0.60;;
15679;SDS011;15488;48.114;11.532;2022-12-26T06:18:40;0.83;;;0.63;;
15679;SDS011;15488;48.114;11.532;2022-12-26T06:21:09;0.93;;;0.80;;
15679;SDS011;15488;48.114;11.532;2022-12-26T06:23:38;0.83;;;0.73;;
15679;SDS011;15488;48.114;11.532;2022-12-26T06:26:06;0.60;;;0.60;;
15679;SDS011;15488;48.114;11.532;2022-12-26T06:28:36;0.90;;;0.60;;
15679;SDS011;15488;48.114;11.532;2022-12-26T06:31:06;0.90;;;0.80;;
15679;SDS011;15488;48.114;11.532;2022-12-26T06:33:34;1.27;;;0.80;;
15679;SDS011;15488;48.114;11.532;2022-12-26T06:36:05;1.00;;;0.77;;
15679;SDS011;15488;48.114;11.532;2022-12-26T06:38:35;1.20;;;1.00;;
15679;SDS011;15488;48.114;11.532;2022-12-26T06:41:03;1.03;;;0.90;;
15679;SDS011;15488;48.114;11.532;2022-12-26T06:43:31;1.07;;;0.80;;
15679;SDS011;15488;48.114;11.532;2022-12-26T06:45:59;1.20;;;0.83;;
15679;SDS011;15488;48.114;11.532;2022-12-26T06:48:28;1.00;;;0.90;;
15679;SDS011;15488;48.114;11.532;2022-12-26T06:50:56;0.93;;;0.80;;
15679;SDS011;15488;48.114;11.532;2022-12-26T06:53:23;1.13;;;0.97;;
15679;SDS011;15488;48.114;11.532;2022-12-26T06:55:52;1.10;;;0.80;;
15679;SDS011;15488;48.114;11.532;2022-12-26T06:58:20;1.33;;;0.87;;
15679;SDS011;15488;48.114;11.532;2022-12-26T07:00:47;0.90;;;0.80;;
15679;SDS011;15488;48.114;11.532;2022-12-26T07:03:14;1.30;;;0.70;;
15679;SDS011;15488;48.114;11.532;2022-12-26T07:05:42;1.17;;;0.90;;
15679;SDS011;15488;48.114;11.532;2022-12-26T07:08:09;0.60;;;0.60;;
15679;SDS011;15488;48.114;11.532;2022-12-26T07:10:37;0.90;;;0.80;;
15679;SDS011;15488;48.114;11.532;2022-12-26T07:13:05;0.83;;;0.80;;
15679;SDS011;15488;48.114;11.532;2022-12-26T07:15:33;1.30;;;0.80;;
15679;SDS011;15488;48.114;11.532;2022-12-26T07:18:00;0.77;;;0.77;;
15679;SDS011;15488;48.114;11.532;2022-12-26T07:20:28;0.90;;;0.67;;
15679;SDS011;15488;48.114;11.532;2022-12-26T07:22:55;1.33;;;0.70;;
15679;SDS011;15488;48.114;11.532;2022-12-26T07:25:22;1.00;;;0.67;;
15679;SDS011;15488;48.114;11.532;2022-12-26T07:27:51;0.90;;;0.70;;
15679;SDS011;15488;48.114;11.532;2022-12-26T07:30:20;0.97;;;0.60;;
15679;SDS011;15488;48.114;11.532;2022-12-26T07:32:48;1.00;;;0.60;;
15679;SDS011;15488;48.114;11.532;2022-12-26T07:35:15;2.33;;;1.00;;
15679;SDS011;15488;48.114;11.532;2022-12-26T07:37:42;3.97;;;2.60;;
15679;SDS011;15488;48.114;11.532;2022-12-26T07:40:10;1.00;;;0.80;;
15679;SDS011;15488;48.114;11.532;2022-12-26T07:42:38;0.60;;;0.60;;
15679;SDS011;15488;48.114;11.532;2022-12-26T07:45:06;1.50;;;0.80;;
15679;SDS011;15488;48.114;11.532;2022-12-26T07:47:35;0.80;;;0.60;;
15679;SDS011;15488;48.114;11.532;2022-12-26T07:50:03;0.67;;;0.67;;
15679;SDS011;15488;48.114;11.532;2022-12-26T07:52:31;2.40;;;1.70;;
15679;SDS011;15488;48.114;11.532;2022-12-26T07:54:58;1.33;;;0.90;;
15679;SDS011;15488;48.114;11.532;2022-12-26T07:57:26;1.00;;;0.80;;
15679;SDS011;15488;48.114;11.532;2022-12-26T07:59:53;1.53;;;0.70;;
15679;SDS011;15488;48.114;11.532;2022-12-26T08:02:20;0.77;;;0.70;;
15679;SDS011;15488;48.114;11.532;2022-12-26T08:04:49;0.80;;;0.70;;
15679;SDS011;15488;48.114;11.532;2022-12-26T08:07:17;1.40;;;0.70;;
15679;SDS011;15488;48.114;11.532;2022-12-26T08:09:44;0.83;;;0.70;;
15679;SDS011;15488;48.114;11.532;2022-12-26T08:12:12;0.73;;;0.70;;
15679;SDS011;15488;48.114;11.532;2022-12-26T08:14:39;1.00;;;0.90;;
15679;SDS011;15488;48.114;11.532;2022-12-26T08:17:07;0.90;;;0.73;;
15679;SDS011;15488;48.114;11.532;2022-12-26T08:19:34;1.87;;;1.00;;
15679;SDS011;15488;48.114;11.532;2022-12-26T08:22:03;5.10;;;3.83;;
15679;SDS011;15488;48.114;11.532;2022-12-26T08:24:30;1.93;;;1.60;;
15679;SDS011;15488;48.114;11.532;2022-12-26T08:26:58;1.70;;;1.27;;
15679;SDS011;15488;48.114;11.532;2022-12-26T08:29:25;1.70;;;1.03;;
15679;SDS011;15488;48.114;11.532;2022-12-26T08:31:53;1.93;;;0.90;;
15679;SDS011;15488;48.114;11.532;2022-12-26T08:34:20;2.20;;;1.10;;
15679;SDS011;15488;48.114;11.532;2022-12-26T08:36:49;2.60;;;2.07;;
15679;SDS011;15488;48.114;11.532;2022-12-26T08:39:17;2.30;;;1.63;;
15679;SDS011;15488;48.114;11.532;2022-12-26T08:41:45;2.50;;;1.60;;
15679;SDS011;15488;48.114;11.532;2022-12-26T08:44:12;1.20;;;1.00;;
15679;SDS011;15488;48.114;11.532;2022-12-26T08:46:41;1.37;;;1.00;;
15679;SDS011;15488;48.114;11.532;2022-12-26T08:49:09;1.47;;;0.90;;
15679;SDS011;15488;48.114;11.532;2022-12-26T08:51:37;2.07;;;1.10;;
15679;SDS011;15488;48.114;11.532;2022-12-26T08:54:05;1.77;;;0.93;;
15679;SDS011;15488;48.114;11.532;2022-12-26T08:56:33;2.73;;;1.20;;
15679;SDS011;15488;48.114;11.532;2022-12-26T08:59:01;1.60;;;1.10;;
15679;SDS011;15488;48.114;11.532;2022-12-26T09:01:29;1.20;;;1.10;;
15679;SDS011;15488;48.114;11.532;2022-12-26T09:03:58;1.30;;;0.90;;
15679;SDS011;15488;48.114;11.532;2022-12-26T09:06:27;1.60;;;0.90;;
15679;SDS011;15488;48.114;11.532;2022-12-26T09:08:57;2.80;;;1.30;;
15679;SDS011;15488;48.114;11.532;2022-12-26T09:11:25;1.47;;;1.10;;
15679;SDS011;15488;48.114;11.532;2022-12-26T09:13:55;1.20;;;1.10;;
15679;SDS011;15488;48.114;11.532;2022-12-26T09:16:24;2.23;;;1.00;;
15679;SDS011;15488;48.114;11.532;2022-12-26T09:18:54;1.27;;;1.00;;
15679;SDS011;15488;48.114;11.532;2022-12-26T09:21:23;4.23;;;1.20;;
15679;SDS011;15488;48.114;11.532;2022-12-26T09:23:54;1.40;;;1.10;;
15679;SDS011;15488;48.114;11.532;2022-12-26T09:26:22;2.23;;;0.80;;
15679;SDS011;15488;48.114;11.532;2022-12-26T09:28:50;1.67;;;1.00;;
15679;SDS011;15488;48.114;11.532;2022-12-26T09:31:20;1.57;;;1.10;;
15679;SDS011;15488;48.114;11.532;2022-12-26T09:33:48;1.00;;;0.90;;
15679;SDS011;15488;48.114;11.532;2022-12-26T09:36:21;2.43;;;1.03;;
15679;SDS011;15488;48.114;11.532;2022-12-26T09:38:50;2.03;;;1.07;;
15679;SDS011;15488;48.114;11.532;2022-12-26T09:41:26;1.20;;;1.10;;
15679;SDS011;15488;48.114;11.532;2022-12-26T09:44:13;1.53;;;1.10;;
15679;SDS011;15488;48.114;11.532;2022-12-26T09:46:46;2.97;;;2.00;;
15679;SDS011;15488;48.114;11.532;2022-12-26T09:49:22;2.13;;;1.60;;
15679;SDS011;15488;48.114;11.532;2022-12-26T09:51:54;1.50;;;1.10;;
15679;SDS011;15488;48.114;11.532;2022-12-26T09:54:25;1.60;;;1.00;;
15679;SDS011;15488;48.114;11.532;2022-12-26T09:56:56;1.63;;;1.30;;
15679;SDS011;15488;48.114;11.532;2022-12-26T09:59:25;1.53;;;1.03;;
15679;SDS011;15488;48.114;11.532;2022-12-26T10:01:55;1.60;;;1.23;;
15679;SDS011;15488;48.114;11.532;2022-12-26T10:04:23;1.30;;;1.10;;
15679;SDS011;15488;48.114;11.532;2022-12-26T10:06:54;1.30;;;1.13;;
15679;SDS011;15488;48.114;11.532;2022-12-26T10:09:42;1.47;;;1.00;;
15679;SDS011;15488;48.114;11.532;2022-12-26T10:12:27;1.63;;;1.30;;
15679;SDS011;15488;48.114;11.532;2022-12-26T10:15:05;2.00;;;1.40;;
15679;SDS011;15488;48.114;11.532;2022-12-26T10:17:50;1.47;;;1.20;;
15679;SDS011;15488;48.114;11.532;2022-12-26T10:20:23;1.37;;;1.20;;
15679;SDS011;15488;48.114;11.532;2022-12-26T10:23:07;1.57;;;1.20;;
15679;SDS011;15488;48.114;11.532;2022-12-26T10:25:46;1.30;;;1.20;;
15679;SDS011;15488;48.114;11.532;2022-12-26T10:28:19;1.20;;;1.00;;
15679;SDS011;15488;48.114;11.532;2022-12-26T10:30:53;1.70;;;1.27;;
15679;SDS011;15488;48.114;11.532;2022-12-26T10:33:27;1.30;;;0.97;;
15679;SDS011;15488;48.114;11.532;2022-12-26T10:36:00;1.30;;;0.83;;
15679;SDS011;15488;48.114;11.532;2022-12-26T10:38:29;0.70;;;0.70;;
15679;SDS011;15488;48.114;11.532;2022-12-26T10:41:02;1.30;;;0.80;;
15679;SDS011;15488;48.114;11.532;2022-12-26T10:43:34;0.93;;;0.70;;
15679;SDS011;15488;48.114;11.532;2022-12-26T10:46:17;1.10;;;1.00;;
15679;SDS011;15488;48.114;11.532;2022-12-26T10:49:01;0.97;;;0.73;;
15679;SDS011;15488;48.114;11.532;2022-12-26T10:51:28;0.80;;;0.70;;
15679;SDS011;15488;48.114;11.532;2022-12-26T10:53:56;0.70;;;0.60;;
15679;SDS011;15488;48.114;11.532;2022-12-26T10:56:24;0.80;;;0.73;;
15679;SDS011;15488;48.114;11.532;2022-12-26T10:58:57;1.03;;;0.97;;
15679;SDS011;15488;48.114;11.532;2022-12-26T11:01:31;1.80;;;1.60;;
15679;SDS011;15488;48.114;11.532;2022-12-26T11:04:02;1.77;;;0.80;;
15679;SDS011;15488;48.114;11.532;2022-12-26T11:06:31;0.87;;;0.80;;
15679;SDS011;15488;48.114;11.532;2022-12-26T11:09:03;1.73;;;1.00;;
15679;SDS011;15488;48.114;11.532;2022-12-26T11:11:32;1.73;;;1.00;;
15679;SDS011;15488;48.114;11.532;2022-12-26T11:17:00;1.27;;;0.77;;
15679;SDS011;15488;48.114;11.532;2022-12-26T11:19:32;1.17;;;0.90;;
15679;SDS011;15488;48.114;11.532;2022-12-26T11:25:15;1.43;;;1.00;;
15679;SDS011;15488;48.114;11.532;2022-12-26T11:27:45;1.33;;;0.80;;
15679;SDS011;15488;48.114;11.532;2022-12-26T11:30:15;1.07;;;0.80;;
15679;SDS011;15488;48.114;11.532;2022-12-26T11:32:46;0.77;;;0.77;;
15679;SDS011;15488;48.114;11.532;2022-12-26T11:35:19;1.63;;;1.00;;
15679;SDS011;15488;48.114;11.532;2022-12-26T11:37:49;0.90;;;0.83;;
15679;SDS011;15488;48.114;11.532;2022-12-26T11:40:19;1.37;;;0.87;;
15679;SDS011;15488;48.114;11.532;2022-12-26T11:42:49;1.23;;;1.10;;
15679;SDS011;15488;48.114;11.532;2022-12-26T11:45:21;1.27;;;1.00;;
15679;SDS011;15488;48.114;11.532;2022-12-26T11:47:50;2.77;;;1.80;;
15679;SDS011;15488;48.114;11.532;2022-12-26T11:50:22;3.03;;;1.10;;
15679;SDS011;15488;48.114;11.532;2022-12-26T11:52:52;1.10;;;1.00;;
15679;SDS011;15488;48.114;11.532;2022-12-26T11:55:31;1.17;;;1.07;;
15679;SDS011;15488;48.114;11.532;2022-12-26T11:58:04;1.57;;;0.90;;
15679;SDS011;15488;48.114;11.532;2022-12-26T12:03:31;1.40;;;1.00;;
15679;SDS011;15488;48.114;11.532;2022-12-26T12:06:05;1.80;;;0.93;;
15679;SDS011;15488;48.114;11.532;2022-12-26T12:08:50;1.73;;;1.10;;
15679;SDS011;15488;48.114;11.532;2022-12-26T12:11:27;1.13;;;1.03;;
15679;SDS011;15488;48.114;11.532;2022-12-26T12:16:58;1.77;;;1.40;;
15679;SDS011;15488;48.114;11.532;2022-12-26T12:19:36;1.37;;;1.03;;
15679;SDS011;15488;48.114;11.532;2022-12-26T12:22:18;1.50;;;1.30;;
15679;SDS011;15488;48.114;11.532;2022-12-26T12:25:10;2.90;;;1.37;;
15679;SDS011;15488;48.114;11.532;2022-12-26T12:28:03;1.80;;;1.23;;
15679;SDS011;15488;48.114;11.532;2022-12-26T12:30:55;2.80;;;1.40;;
15679;SDS011;15488;48.114;11.532;2022-12-26T12:33:32;2.20;;;1.37;;
15679;SDS011;15488;48.114;11.532;2022-12-26T12:36:09;2.73;;;1.73;;
15679;SDS011;15488;48.114;11.532;2022-12-26T12:38:48;1.60;;;1.40;;
15679;SDS011;15488;48.114;11.532;2022-12-26T12:41:34;1.83;;;1.57;;
15679;SDS011;15488;48.114;11.532;2022-12-26T12:44:23;3.53;;;1.60;;
15679;SDS011;15488;48.114;11.532;2022-12-26T12:46:57;1.60;;;1.50;;
15679;SDS011;15488;48.114;11.532;2022-12-26T12:49:35;2.00;;;1.80;;
15679;SDS011;15488;48.114;11.532;2022-12-26T12:52:14;1.90;;;1.70;;
15679;SDS011;15488;48.114;11.532;2022-12-26T12:54:57;2.40;;;1.90;;
15679;SDS011;15488;48.114;11.532;2022-12-26T12:57:37;3.03;;;1.87;;
15679;SDS011;15488;48.114;11.532;2022-12-26T13:00:11;2.57;;;1.70;;
15679;SDS011;15488;48.114;11.532;2022-12-26T13:02:42;2.47;;;1.87;;
15679;SDS011;15488;48.114;11.532;2022-12-26T13:05:18;2.20;;;1.80;;
15679;SDS011;15488;48.114;11.532;2022-12-26T13:07:56;3.27;;;2.10;;
15679;SDS011;15488;48.114;11.532;2022-12-26T13:10:29;2.60;;;2.10;;
15679;SDS011;15488;48.114;11.532;2022-12-26T13:13:01;2.50;;;2.00;;
15679;SDS011;15488;48.114;11.532;2022-12-26T13:15:36;2.63;;;2.13;;
15679;SDS011;15488;48.114;11.532;2022-12-26T13:18:10;2.93;;;1.97;;
15679;SDS011;15488;48.114;11.532;2022-12-26T13:20:43;2.40;;;2.10;;
15679;SDS011;15488;48.114;11.532;2022-12-26T13:23:15;2.93;;;2.30;;
15679;SDS011;15488;48.114;11.532;2022-12-26T13:26:07;2.97;;;2.07;;
15679;SDS011;15488;48.114;11.532;2022-12-26T13:28:38;2.50;;;2.13;;
15679;SDS011;15488;48.114;11.532;2022-12-26T13:31:15;3.63;;;2.13;;
15679;SDS011;15488;48.114;11.532;2022-12-26T13:33:43;3.70;;;2.30;;
15679;SDS011;15488;48.114;11.532;2022-12-26T13:36:11;2.53;;;2.13;;
15679;SDS011;15488;48.114;11.532;2022-12-26T13:39:13;3.93;;;2.43;;
15679;SDS011;15488;48.114;11.532;2022-12-26T13:41:53;3.57;;;2.00;;
15679;SDS011;15488;48.114;11.532;2022-12-26T13:44:40;2.30;;;2.10;;
15679;SDS011;15488;48.114;11.532;2022-12-26T13:49:57;2.90;;;2.23;;
15679;SDS011;15488;48.114;11.532;2022-12-26T13:52:56;3.53;;;2.17;;
15679;SDS011;15488;48.114;11.532;2022-12-26T13:55:41;3.03;;;2.20;;
15679;SDS011;15488;48.114;11.532;2022-12-26T13:58:17;4.37;;;2.50;;
15679;SDS011;15488;48.114;11.532;2022-12-26T14:00:52;2.60;;;2.00;;
15679;SDS011;15488;48.114;11.532;2022-12-26T14:03:33;2.60;;;2.10;;
15679;SDS011;15488;48.114;11.532;2022-12-26T14:06:14;2.27;;;1.87;;
15679;SDS011;15488;48.114;11.532;2022-12-26T14:08:57;4.63;;;1.90;;
15679;SDS011;15488;48.114;11.532;2022-12-26T14:11:58;2.43;;;1.70;;
15679;SDS011;15488;48.114;11.532;2022-12-26T14:14:40;2.10;;;1.83;;
15679;SDS011;15488;48.114;11.532;2022-12-26T14:17:18;1.77;;;1.60;;
15679;SDS011;15488;48.114;11.532;2022-12-26T14:20:00;3.23;;;1.90;;
15679;SDS011;15488;48.114;11.532;2022-12-26T14:22:38;2.13;;;1.93;;
15679;SDS011;15488;48.114;11.532;2022-12-26T14:25:15;2.13;;;1.80;;
15679;SDS011;15488;48.114;11.532;2022-12-26T14:27:49;3.23;;;1.87;;
15679;SDS011;15488;48.114;11.532;2022-12-26T14:30:23;2.83;;;1.80;;
15679;SDS011;15488;48.114;11.532;2022-12-26T14:33:01;2.07;;;1.57;;
15679;SDS011;15488;48.114;11.532;2022-12-26T14:35:44;2.07;;;1.87;;
15679;SDS011;15488;48.114;11.532;2022-12-26T14:38:23;3.47;;;2.30;;
15679;SDS011;15488;48.114;11.532;2022-12-26T14:41:03;1.90;;;1.57;;
15679;SDS011;15488;48.114;11.532;2022-12-26T14:43:36;2.40;;;1.60;;
15679;SDS011;15488;48.114;11.532;2022-12-26T14:46:08;2.50;;;1.87;;
15679;SDS011;15488;48.114;11.532;2022-12-26T14:49:16;1.90;;;1.70;;
15679;SDS011;15488;48.114;11.532;2022-12-26T14:51:47;2.87;;;2.00;;
15679;SDS011;15488;48.114;11.532;2022-12-26T15:00:19;2.50;;;2.00;;
15679;SDS011;15488;48.114;11.532;2022-12-26T15:06:36;3.17;;;2.00;;
15679;SDS011;15488;48.114;11.532;2022-12-26T15:15:31;3.20;;;2.00;;
15679;SDS011;15488;48.114;11.532;2022-12-26T15:18:23;2.30;;;1.80;;
15679;SDS011;15488;48.114;11.532;2022-12-26T15:27:30;2.30;;;1.63;;
15679;SDS011;15488;48.114;11.532;2022-12-26T15:30:18;2.30;;;1.67;;
15679;SDS011;15488;48.114;11.532;2022-12-26T15:32:50;1.67;;;1.43;;
15679;SDS011;15488;48.114;11.532;2022-12-26T15:35:26;2.03;;;1.50;;
15679;SDS011;15488;48.114;11.532;2022-12-26T15:38:03;1.60;;;1.10;;
15679;SDS011;15488;48.114;11.532;2022-12-26T15:40:41;1.67;;;1.10;;
15679;SDS011;15488;48.114;11.532;2022-12-26T15:46:15;2.00;;;1.10;;
15679;SDS011;15488;48.114;11.532;2022-12-26T15:48:52;1.80;;;1.10;;
15679;SDS011;15488;48.114;11.532;2022-12-26T15:51:34;1.90;;;1.30;;
15679;SDS011;15488;48.114;11.532;2022-12-26T15:54:14;1.20;;;1.10;;
15679;SDS011;15488;48.114;11.532;2022-12-26T15:56:59;1.27;;;1.00;;
15679;SDS011;15488;48.114;11.532;2022-12-26T16:02:36;0.83;;;0.70;;